Time;durP1;ratioP1;P1;durP2;ratioP2;P2;SDS_P1;SDS_P2;PMS_P1;PMS_P2;Temp;Humidity;BMP_temperature;BMP_pressure;BME280_temperature;BME280_humidity;BME280_pressure;Samples;Min_cycle;Max_cycle;Signal;HPM_P1;HPM_P2
2022/10/11 00:00:43;;;;;;;1.77;1.67;;;;;;;8.17;100.00;99892.75;1766883;81;21070;-79
2022/10/11 00:03:10;;;;;;;4.13;1.67;;;;;;;8.16;100.00;99898.64;1766587;81;21070;-76
2022/10/11 00:05:37;;;;;;;3.30;1.80;;;;;;;8.14;100.00;99889.89;1767069;81;21023;-80
2022/10/11 00:08:05;;;;;;;1.67;1.57;;;;;;;8.13;100.00;99893.56;1768062;81;21046;-79
2022/10/11 00:10:33;;;;;;;2.17;1.77;;;;;;;8.14;100.00;99893.06;1768660;81;21398;-79
2022/10/11 00:12:59;;;;;;;3.53;1.87;;;;;;;8.12;100.00;99890.52;1766911;80;20979;-79
2022/10/11 00:15:27;;;;;;;3.50;2.00;;;;;;;8.13;100.00;99894.08;1770336;79;21034;-79
2022/10/11 00:17:55;;;;;;;1.83;1.70;;;;;;;8.10;100.00;99899.77;1802310;80;20968;-80
2022/10/11 00:20:21;;;;;;;2.80;1.63;;;;;;;8.10;100.00;99905.16;1801905;80;21027;-80
2022/10/11 00:22:49;;;;;;;3.33;1.67;;;;;;;8.09;100.00;99910.19;1802008;80;21069;-79
2022/10/11 00:25:16;;;;;;;2.20;1.83;;;;;;;8.09;100.00;99907.50;1802090;80;21070;-78
2022/10/11 00:27:43;;;;;;;2.70;1.50;;;;;;;8.09;100.00;99912.41;1802216;80;21520;-79
2022/10/11 00:30:12;;;;;;;3.17;1.67;;;;;;;8.08;100.00;99913.91;1802145;79;21070;-78
2022/10/11 00:32:39;;;;;;;3.43;1.87;;;;;;;8.08;100.00;99912.56;1802647;80;21011;-78
2022/10/11 00:35:07;;;;;;;4.50;2.13;;;;;;;8.08;100.00;99917.44;1802131;80;21089;-79
2022/10/11 00:37:36;;;;;;;3.30;1.70;;;;;;;8.06;100.00;99918.09;1802184;80;21049;-78
2022/10/11 00:40:07;;;;;;;5.13;1.73;;;;;;;8.05;100.00;99919.09;1802365;80;21007;-79
2022/10/11 00:42:34;;;;;;;1.77;1.50;;;;;;;8.05;100.00;99920.44;1691503;84;21014;-78
2022/10/11 00:45:29;;;;;;;1.93;1.60;;;;;;;8.04;100.00;99921.45;1691259;84;21034;-79
2022/10/11 00:48:00;;;;;;;2.00;1.57;;;;;;;8.03;100.00;99917.56;1691050;85;21113;-79
2022/10/11 00:50:28;;;;;;;2.53;1.77;;;;;;;8.02;100.00;99917.21;1690553;85;21109;-78
2022/10/11 00:52:56;;;;;;;3.83;1.80;;;;;;;8.02;100.00;99922.59;1668004;85;21536;-79
2022/10/11 00:55:23;;;;;;;3.10;1.80;;;;;;;8.01;100.00;99916.88;1690899;85;21622;-79
2022/10/11 00:57:51;;;;;;;3.57;1.73;;;;;;;7.99;100.00;99919.73;1690721;85;21117;-78
2022/10/11 01:00:18;;;;;;;2.00;1.60;;;;;;;7.97;100.00;99919.05;1689769;85;21006;-79
2022/10/11 01:02:45;;;;;;;1.70;1.60;;;;;;;7.96;100.00;99918.18;1680588;84;21743;-80
2022/10/11 01:05:15;;;;;;;1.57;1.37;;;;;;;7.96;100.00;99922.73;1680614;84;21567;-80
2022/10/11 01:07:41;;;;;;;2.00;1.80;;;;;;;7.93;100.00;99923.03;1680628;85;20978;-81
2022/10/11 01:10:09;;;;;;;2.47;1.90;;;;;;;7.93;100.00;99917.66;1680532;85;21573;-80
2022/10/11 01:12:40;;;;;;;3.37;1.83;;;;;;;7.93;100.00;99919.00;1657653;85;21097;-78
2022/10/11 01:15:24;;;;;;;1.93;1.73;;;;;;;7.92;100.00;99918.16;1680254;85;21049;-79
2022/10/11 01:18:18;;;;;;;1.83;1.50;;;;;;;7.88;100.00;99915.92;1680609;85;21018;-78
2022/10/11 01:21:01;;;;;;;;;;;;;;;7.87;100.00;99914.26;1683026;85;21006;-80
2022/10/11 01:23:55;;;;;;;1.43;1.30;;;;;;;7.85;100.00;99913.06;1643564;86;20140;-81
2022/10/11 01:26:49;;;;;;;3.00;1.57;;;;;;;7.85;100.00;99921.64;1640095;87;21106;-79
2022/10/11 01:29:19;;;;;;;;;;;;;;;7.82;100.00;99922.78;1645695;87;21622;-81
2022/10/11 01:31:57;;;;;;;3.27;1.63;;;;;;;7.80;100.00;99923.45;1638625;87;20139;-80
2022/10/11 01:34:42;;;;;;;3.53;1.63;;;;;;;7.78;100.00;99926.80;1617788;89;21129;-79
2022/10/11 01:37:31;;;;;;;4.10;1.80;;;;;;;7.78;100.00;99925.45;1594608;89;21130;-80
2022/10/11 01:40:12;;;;;;;2.73;1.93;;;;;;;7.78;100.00;99928.98;1628117;87;21018;-80
2022/10/11 01:42:39;;;;;;;1.73;1.63;;;;;;;7.77;100.00;99929.14;1639745;87;21034;-81
2022/10/11 01:45:08;;;;;;;1.40;1.30;;;;;;;7.77;100.00;99933.17;1617426;88;21062;-82
2022/10/11 01:47:37;;;;;;;2.97;1.73;;;;;;;7.77;100.00;99938.56;1639179;87;21034;-80
2022/10/11 01:50:07;;;;;;;2.13;1.33;;;;;;;7.75;100.00;99926.59;1638893;88;21662;-81
2022/10/11 01:52:33;;;;;;;1.63;1.40;;;;;;;7.75;100.00;99929.80;1639076;87;21575;-80
2022/10/11 01:55:30;;;;;;;2.27;1.53;;;;;;;7.74;100.00;99931.66;1639215;87;21598;-81
2022/10/11 01:58:11;;;;;;;2.10;1.40;;;;;;;7.74;100.00;99926.78;1615917;89;21086;-80
2022/10/11 02:00:59;;;;;;;4.53;1.80;;;;;;;7.73;100.00;99921.88;1593844;89;21046;-80
2022/10/11 02:03:43;;;;;;;1.70;1.60;;;;;;;7.72;100.00;99930.10;1566747;91;21088;-81
2022/10/11 02:06:18;;;;;;;2.90;1.73;;;;;;;7.70;100.00;99930.28;1539895;93;21172;-81
2022/10/11 02:09:30;;;;;;;1.67;1.57;;;;;;;7.70;100.00;99924.90;1533614;94;21174;-83
2022/10/11 02:12:02;;;;;;;1.97;1.73;;;;;;;7.70;100.00;99919.99;1524187;91;21161;-83
2022/10/11 02:14:32;;;;;;;3.63;1.70;;;;;;;7.69;100.00;99927.74;1524006;94;21567;-82
2022/10/11 02:17:06;;;;;;;2.03;1.67;;;;;;;7.68;100.00;99923.34;1497104;96;21145;-81
2022/10/11 02:19:35;;;;;;;1.93;1.73;;;;;;;7.68;100.00;99916.62;1537415;93;21656;-81
2022/10/11 02:22:05;;;;;;;4.60;1.73;;;;;;;7.67;100.00;99917.13;1549154;93;21124;-81
2022/10/11 02:24:34;;;;;;;5.30;1.90;;;;;;;7.68;100.00;99923.34;1549324;93;21060;-80
2022/10/11 02:27:02;;;;;;;3.50;1.80;;;;;;;7.66;100.00;99924.84;1548869;93;21088;-78
2022/10/11 02:29:32;;;;;;;4.33;1.80;;;;;;;7.66;100.00;99928.05;1548660;93;21627;-80
2022/10/11 02:31:59;;;;;;;1.97;1.60;;;;;;;7.63;100.00;99925.14;1546815;92;21090;-81
2022/10/11 02:34:37;;;;;;;2.30;1.90;;;;;;;7.62;100.00;99931.55;1515862;95;21548;-82
2022/10/11 02:37:23;;;;;;;5.40;1.90;;;;;;;7.58;100.00;99926.97;1490337;96;21195;-80
2022/10/11 02:40:15;;;;;;;1.53;1.43;;;;;;;7.56;100.00;99923.59;1483527;95;21632;-81
2022/10/11 02:43:00;;;;;;;3.87;1.73;;;;;;;7.55;100.00;99930.48;1535883;93;21591;-80
2022/10/11 02:45:41;;;;;;;3.13;1.80;;;;;;;7.54;100.00;99922.91;1563950;90;21084;-80
2022/10/11 02:48:09;;;;;;;4.13;1.70;;;;;;;7.52;100.00;99938.34;1578736;89;21096;-81
2022/10/11 02:50:37;;;;;;;4.57;1.90;;;;;;;7.50;100.00;99930.92;1584253;90;21061;-82
2022/10/11 02:53:05;;;;;;;3.10;1.87;;;;;;;7.49;100.00;99940.48;1591238;90;21041;-79
2022/10/11 02:55:32;;;;;;;2.73;1.87;;;;;;;7.48;100.00;99936.96;1584382;89;21129;-81
2022/10/11 02:57:59;;;;;;;2.73;1.97;;;;;;;7.43;100.00;99936.58;1591234;90;21100;-80
2022/10/11 03:00:27;;;;;;;1.70;1.60;;;;;;;7.40;100.00;99936.88;1580633;90;21144;-83
2022/10/11 03:02:54;;;;;;;2.60;1.80;;;;;;;7.38;100.00;99934.36;1558031;91;21105;-83
2022/10/11 03:05:20;;;;;;;3.50;1.67;;;;;;;7.37;100.00;99937.20;1589942;87;21062;-83
2022/10/11 03:07:48;;;;;;;3.70;1.90;;;;;;;7.36;100.00;99927.42;1612101;89;21599;-82
2022/10/11 03:10:15;;;;;;;1.80;1.70;;;;;;;7.36;100.00;99930.12;1612672;89;21116;-83
2022/10/11 03:12:44;;;;;;;6.37;2.00;;;;;;;7.35;100.00;99932.48;1612275;89;21110;-82
2022/10/11 03:15:12;;;;;;;1.90;1.77;;;;;;;7.33;100.00;99927.73;1612433;88;21121;-83
2022/10/11 03:17:40;;;;;;;3.33;1.67;;;;;;;7.32;100.00;99929.58;1612786;88;21512;-82
2022/10/11 03:20:08;;;;;;;2.37;1.70;;;;;;;7.33;100.00;99931.76;1612408;89;21108;-83
2022/10/11 03:22:36;;;;;;;3.73;2.33;;;;;;;7.32;100.00;99933.61;1612611;89;21061;-82
2022/10/11 03:25:03;;;;;;;2.83;1.60;;;;;;;7.32;100.00;99928.74;1612887;89;21068;-83
2022/10/11 03:27:32;;;;;;;1.77;1.67;;;;;;;7.32;100.00;99935.47;1612540;89;21042;-82
2022/10/11 03:30:01;;;;;;;2.10;1.80;;;;;;;7.31;100.00;99933.28;1587362;89;21077;-82
2022/10/11 03:32:28;;;;;;;2.00;1.63;;;;;;;7.31;100.00;99941.35;1590259;89;21126;-81
2022/10/11 03:34:55;;;;;;;1.70;1.60;;;;;;;7.30;100.00;99936.95;1631039;88;21084;-82
2022/10/11 03:37:21;;;;;;;2.17;1.50;;;;;;;7.30;100.00;99934.27;1632902;88;21113;-81
2022/10/11 03:39:49;;;;;;;3.57;1.70;;;;;;;7.30;100.00;99935.61;1633251;88;21113;-80
2022/10/11 03:42:16;;;;;;;2.07;1.67;;;;;;;7.27;100.00;99937.26;1633516;87;21108;-81
2022/10/11 03:44:44;;;;;;;1.47;1.37;;;;;;;7.28;100.00;99944.34;1633245;88;21097;-83
2022/10/11 03:47:11;;;;;;;2.30;1.77;;;;;;;7.27;100.00;99935.08;1634071;88;21021;-83
2022/10/11 03:49:40;;;;;;;5.43;1.93;;;;;;;7.25;100.00;99941.95;1634504;87;21073;-81
2022/10/11 03:52:07;;;;;;;2.13;1.73;;;;;;;7.22;100.00;99937.73;1633856;88;21102;-83
2022/10/11 03:54:34;;;;;;;3.43;1.73;;;;;;;7.19;100.00;99933.99;1605376;88;21105;-83
2022/10/11 03:57:02;;;;;;;2.83;1.70;;;;;;;7.18;100.00;99934.14;1633046;88;21208;-83
2022/10/11 03:59:29;;;;;;;3.20;1.97;;;;;;;7.17;100.00;99937.34;1632962;88;21072;-82
2022/10/11 04:01:56;;;;;;;1.90;1.60;;;;;;;7.15;100.00;99932.62;1632766;88;21151;-83
2022/10/11 04:04:23;;;;;;;2.67;1.90;;;;;;;7.15;100.00;99942.02;1633058;88;21541;-83
2022/10/11 04:06:50;;;;;;;2.60;1.30;;;;;;;7.15;100.00;99938.47;1632849;88;21138;-83
2022/10/11 04:09:17;;;;;;;1.90;1.80;;;;;;;7.17;100.00;99947.23;1633008;88;21152;-83
2022/10/11 04:11:44;;;;;;;3.50;2.00;;;;;;;7.17;100.00;99946.75;1633198;88;21179;-84
2022/10/11 04:14:11;;;;;;;2.97;1.80;;;;;;;7.17;100.00;99946.75;1633592;88;21609;-83
2022/10/11 04:16:38;;;;;;;3.10;1.90;;;;;;;7.17;100.00;99948.09;1634415;87;21006;-82
2022/10/11 04:19:05;;;;;;;1.57;1.47;;;;;;;7.16;100.00;99954.45;1635195;88;21151;-83
2022/10/11 04:21:34;;;;;;;3.27;1.77;;;;;;;7.15;100.00;99951.44;1633050;88;21068;-84
2022/10/11 04:24:03;;;;;;;2.50;1.63;;;;;;;7.16;100.00;99957.66;1632907;88;21076;-83
2022/10/11 04:26:30;;;;;;;2.27;1.63;;;;;;;7.16;100.00;99957.66;1632878;88;21539;-83
2022/10/11 04:28:57;;;;;;;2.20;2.00;;;;;;;7.16;100.00;99963.03;1632495;88;21080;-80
2022/10/11 04:31:24;;;;;;;4.53;2.07;;;;;;;7.14;100.00;99956.45;1629002;88;21011;-83
2022/10/11 04:33:51;;;;;;;2.47;2.10;;;;;;;7.14;100.00;99952.93;1668382;85;21011;-84
2022/10/11 04:36:18;;;;;;;2.43;2.10;;;;;;;7.14;100.00;99961.83;1680315;84;21093;-83
2022/10/11 04:38:44;;;;;;;3.67;1.83;;;;;;;7.15;100.00;99958.64;1679898;85;21055;-82
2022/10/11 04:41:13;;;;;;;2.23;1.87;;;;;;;7.13;100.00;99956.60;1716622;82;20990;-82
2022/10/11 04:43:41;;;;;;;1.63;1.53;;;;;;;7.11;100.00;99959.44;1715054;83;21037;-83
2022/10/11 04:46:08;;;;;;;1.93;1.63;;;;;;;7.11;100.00;99961.29;1714924;84;21034;-84
2022/10/11 04:48:35;;;;;;;4.70;1.80;;;;;;;7.10;100.00;99962.27;1714741;83;21033;-83
2022/10/11 04:51:02;;;;;;;2.73;2.00;;;;;;;7.10;100.00;99960.93;1752988;80;21029;-85
2022/10/11 04:53:32;;;;;;;6.10;2.10;;;;;;;7.14;100.00;99958.31;1774075;81;21038;-82
2022/10/11 04:56:06;;;;;;;4.93;2.47;;;;;;;7.19;100.00;99958.70;1773758;81;21049;-84
2022/10/11 04:58:33;;;;;;;2.43;1.63;;;;;;;7.23;100.00;99953.36;1773911;81;20947;-84
2022/10/11 05:01:00;;;;;;;2.87;1.80;;;;;;;7.27;100.00;99959.28;1773315;81;20983;-76
2022/10/11 05:03:27;;;;;;;4.73;2.07;;;;;;;7.32;100.00;99961.86;1772932;81;21499;-77
2022/10/11 05:05:54;;;;;;;1.73;1.63;;;;;;;7.37;100.00;99959.56;1772486;81;21073;-77
2022/10/11 05:08:23;;;;;;;1.57;1.47;;;;;;;7.40;100.00;99965.12;1772338;81;21452;-76
2022/10/11 05:11:02;;;;;;;4.83;2.27;;;;;;;7.45;100.00;99961.98;1772821;81;20976;-77
2022/10/11 05:13:30;;;;;;;1.93;1.57;;;;;;;7.48;100.00;99963.87;1769701;81;21036;-78
2022/10/11 05:15:57;;;;;;;30.57;19.90;;;;;;;7.51;100.00;99952.80;1768940;80;20978;-75
2022/10/11 05:18:24;;;;;;;26.07;13.90;;;;;;;7.56;100.00;99967.12;1771366;81;21530;-75
2022/10/11 05:21:17;;;;;;;22.77;12.57;;;;;;;7.61;100.00;99959.44;1769978;80;21053;-76
2022/10/11 05:23:44;;;;;;;23.83;16.90;;;;;;;7.64;100.00;99959.14;1760710;80;20982;-74
2022/10/11 05:26:11;;;;;;;63.80;33.93;;;;;;;7.68;100.00;99948.41;1784324;79;21006;-74
2022/10/11 05:28:38;;;;;;;24.67;13.87;;;;;;;7.72;100.00;99955.19;1769519;80;21012;-74
2022/10/11 05:31:05;;;;;;;23.80;12.50;;;;;;;7.76;100.00;99951.69;1784749;79;21046;-75
2022/10/11 05:33:33;;;;;;;142.77;90.97;;;;;;;7.80;100.00;99945.82;1781530;80;21040;-79
2022/10/11 05:36:00;;;;;;;25.47;15.33;;;;;;;7.82;100.00;99949.70;1756188;80;20980;-77
2022/10/11 05:38:27;;;;;;;201.47;115.00;;;;;;;7.85;100.00;99950.75;1782688;80;21004;-77
2022/10/11 05:40:54;;;;;;;39.97;23.10;;;;;;;7.91;100.00;99943.38;1783020;80;21479;-78
2022/10/11 05:43:20;;;;;;;14.07;7.27;;;;;;;7.97;100.00;99944.62;1781806;80;21000;-76
2022/10/11 05:45:48;;;;;;;11.73;5.87;;;;;;;8.02;100.00;99941.45;1781994;80;21060;-76
2022/10/11 05:48:15;;;;;;;6.10;3.87;;;;;;;8.02;100.00;99931.55;1749276;80;21075;-75
2022/10/11 05:50:42;;;;;;;3.00;2.37;;;;;;;8.03;100.00;99935.91;1781608;80;21016;-79
2022/10/11 05:53:09;;;;;;;7.00;2.57;;;;;;;8.01;100.00;99937.92;1781841;80;21087;-75
2022/10/11 05:55:38;;;;;;;2.30;2.07;;;;;;;7.98;100.00;99931.02;1782383;80;20981;-74
2022/10/11 05:58:06;;;;;;;6.27;2.93;;;;;;;7.98;100.00;99936.40;1781840;80;21099;-80
2022/10/11 06:00:35;;;;;;;4.80;2.83;;;;;;;7.97;100.00;99928.47;1782123;80;21007;-77
2022/10/11 06:03:04;;;;;;;4.27;2.17;;;;;;;7.93;100.00;99925.73;1778321;81;21044;-76
2022/10/11 06:05:33;;;;;;;4.20;1.93;;;;;;;7.86;100.00;99936.30;1779202;81;21502;-76
2022/10/11 06:08:01;;;;;;;2.80;1.90;;;;;;;7.83;100.00;99946.53;1800467;79;21091;-77
2022/10/11 06:10:28;;;;;;;5.50;2.50;;;;;;;7.79;100.00;99943.28;1815143;79;20975;-78
2022/10/11 06:12:54;;;;;;;3.33;1.80;;;;;;;7.77;100.00;99947.98;1819523;79;21026;-75
2022/10/11 06:15:21;;;;;;;4.70;1.80;;;;;;;7.76;100.00;99946.30;1795515;79;20971;-76
2022/10/11 06:17:49;;;;;;;2.40;1.90;;;;;;;7.78;100.00;99948.34;1751629;82;21557;-76
2022/10/11 06:20:17;;;;;;;5.67;1.83;;;;;;;7.83;100.00;99939.81;1751890;82;21505;-76
2022/10/11 06:22:44;;;;;;;3.23;2.03;;;;;;;7.96;100.00;99945.11;1752274;82;21024;-76
2022/10/11 06:25:11;;;;;;;4.03;2.30;;;;;;;8.15;100.00;99939.20;1752370;82;21058;-76
2022/10/11 06:27:38;;;;;;;2.67;2.40;;;;;;;8.38;100.00;99936.81;1752202;82;21046;-76
2022/10/11 06:30:07;;;;;;;2.13;1.93;;;;;;;8.58;100.00;99940.16;1752105;82;21046;-78
2022/10/11 06:32:33;;;;;;;6.03;2.90;;;;;;;8.79;100.00;99936.22;1762482;81;21536;-75
2022/10/11 06:35:02;;;;;;;3.07;2.30;;;;;;;8.97;100.00;99936.95;1765231;81;21007;-77
2022/10/11 06:37:29;;;;;;;11.03;3.87;;;;;;;9.13;100.00;99931.59;1764751;81;21030;-75
2022/10/11 06:39:56;;;;;;;3.67;2.30;;;;;;;9.31;100.00;99932.84;1764737;81;21014;-74
2022/10/11 06:42:23;;;;;;;2.17;1.97;;;;;;;9.48;100.00;99931.52;1765333;81;21530;-77
2022/10/11 06:44:50;;;;;;;4.67;1.93;;;;;;;9.66;100.00;99932.20;1765791;81;21038;-75
2022/10/11 06:47:17;;;;;;;5.83;2.20;;;;;;;9.93;100.00;99933.39;1765805;81;21053;-78
2022/10/11 06:49:45;;;;;;;6.60;2.40;;;;;;;10.20;100.00;99937.09;1766044;81;21532;-76
2022/10/11 06:52:12;;;;;;;4.97;2.22;;;;;;;10.43;100.00;99942.64;1768423;81;21022;-75
2022/10/11 06:54:39;;;;;;;4.03;2.47;;;;;;;10.66;100.00;99947.33;1766306;81;21054;-77
2022/10/11 06:57:05;;;;;;;4.12;2.35;;;;;;;10.84;100.00;99956.55;1766015;81;21057;-79
2022/10/11 06:59:37;;;;;;;4.33;2.20;;;;;;;11.01;100.00;99954.61;1765571;81;21090;-76
2022/10/11 07:02:07;;;;;;;3.72;2.45;;;;;;;11.20;100.00;99958.23;1676502;85;21073;-77
2022/10/11 07:04:44;;;;;;;;;;;;;;;11.39;100.00;99961.53;1593130;90;21104;-77
2022/10/11 07:07:13;;;;;;;3.58;2.27;;;;;;;11.56;100.00;99981.20;1595806;89;20118;-73
2022/10/11 07:09:40;;;;;;;3.47;2.17;;;;;;;11.69;100.00;99986.89;1562912;91;21145;-76
2022/10/11 07:12:08;;;;;;;3.65;2.22;;;;;;;11.78;100.00;99998.00;1562188;92;21250;-76
2022/10/11 07:14:35;;;;;;;5.90;2.00;;;;;;;11.89;100.00;100015.70;1562111;92;21104;-76
2022/10/11 07:17:04;;;;;;;2.05;1.72;;;;;;;12.00;100.00;100014.46;1538872;93;21156;-75
2022/10/11 07:19:31;;;;;;;3.55;2.75;;;;;;;12.10;100.00;100025.91;1538912;93;21634;-79
2022/10/11 07:21:58;;;;;;;3.45;2.80;;;;;;;12.11;100.00;100034.38;1554748;92;21100;-76
2022/10/11 07:24:25;;;;;;;3.15;2.05;;;;;;;12.17;100.00;100027.91;1563574;92;21133;-76
2022/10/11 07:26:51;;;;;;;3.05;2.25;;;;;;;12.22;100.00;100046.66;1563935;91;21069;-77
2022/10/11 07:29:23;;;;;;;4.95;2.52;;;;;;;12.34;100.00;100050.63;1564629;92;21081;-75
2022/10/11 07:31:50;;;;;;;2.47;2.10;;;;;;;12.51;100.00;100050.48;1529507;93;21119;-76
2022/10/11 07:34:19;;;;;;;4.83;2.02;;;;;;;12.64;100.00;100051.20;1521605;94;21094;-77
2022/10/11 07:36:46;;;;;;;2.98;2.15;;;;;;;12.76;100.00;100045.66;1545361;90;21063;-77
2022/10/11 07:39:14;;;;;;;3.37;2.22;;;;;;;12.91;100.00;100052.47;1513177;95;21050;-75
2022/10/11 07:41:41;;;;;;;2.95;2.30;;;;;;;13.04;100.00;100062.15;1526017;92;21066;-73
2022/10/11 07:44:08;;;;;;;168.80;74.92;;;;;;;13.13;100.00;100073.77;1512638;94;21081;-77
2022/10/11 07:46:35;;;;;;;129.82;73.97;;;;;;;13.27;100.00;100074.27;1508396;95;21034;-72
2022/10/11 07:49:03;;;;;;;19.77;10.93;;;;;;;13.46;100.00;100077.49;1529873;92;21539;-74
2022/10/11 07:51:30;;;;;;;23.87;13.35;;;;;;;13.63;100.00;100079.47;1529561;92;21538;-78
2022/10/11 07:53:57;;;;;;;6.97;4.08;;;;;;;13.76;100.00;100085.08;1538532;92;21097;-81
2022/10/11 07:56:31;;;;;;;5.47;3.47;;;;;;;13.88;100.00;100092.72;1556862;90;21094;-85
2022/10/11 07:59:02;;;;;;;3.30;2.25;;;;;;;13.99;100.00;100094.95;1563142;88;20982;-73
2022/10/11 08:01:29;;;;;;;130.85;67.58;;;;;;;14.12;100.00;100095.62;1601760;88;21529;-75
2022/10/11 08:03:56;;;;;;;40.38;21.48;;;;;;;14.23;100.00;100100.00;1627428;87;21052;-75
2022/10/11 08:06:28;;;;;;;11.68;5.28;;;;;;;14.29;100.00;100115.23;1664491;85;21006;-75
2022/10/11 08:08:59;;;;;;;4.97;3.12;;;;;;;14.37;100.00;100120.55;1671621;85;21086;-81
2022/10/11 08:11:31;;;;;;;3.50;2.65;;;;;;;14.53;100.00;100123.53;1649865;86;21027;-80
2022/10/11 08:14:03;;;;;;;2.62;2.42;;;;;;;14.71;100.00;100126.64;1610241;88;21757;-74
2022/10/11 08:16:31;;;;;;;4.70;2.50;;;;;;;14.86;100.00;100133.39;1609788;88;21535;-79
2022/10/11 08:18:59;;;;;;;4.53;2.80;;;;;;;14.98;100.00;100138.62;1610363;89;21121;-75
2022/10/11 08:21:26;;;;;;;5.55;2.62;;;;;;;15.09;100.00;100145.93;1607583;89;21111;-71
2022/10/11 08:23:53;;;;;;;4.50;2.67;;;;;;;15.49;100.00;100142.95;1610132;89;21036;-80
2022/10/11 08:26:22;;;;;;;3.70;2.60;;;;;;;15.49;100.00;100142.95;1608542;89;21010;-77
2022/10/11 08:28:50;;;;;;;4.20;2.52;;;;;;;15.65;100.00;100155.41;1574161;90;21068;-76
2022/10/11 08:31:17;;;;;;;7.22;3.35;;;;;;;15.69;100.00;100159.94;1573274;89;21600;-75
2022/10/11 08:33:45;;;;;;;2.30;2.05;;;;;;;15.71;100.00;100172.84;1532138;93;21052;-76
2022/10/11 08:36:13;;;;;;;3.75;2.10;;;;;;;15.73;100.00;100174.30;1561791;91;21064;-76
2022/10/11 08:38:40;;;;;;;2.45;2.05;;;;;;;15.85;100.00;100188.78;1568659;91;21088;-77
2022/10/11 08:41:28;;;;;;;3.22;2.35;;;;;;;16.01;100.00;100192.52;1565821;91;21032;-75
2022/10/11 08:44:35;;;;;;;10.43;4.30;;;;;;;16.01;100.00;100192.52;1537237;92;21085;-75
2022/10/11 08:47:16;;;;;;;2.95;2.30;;;;;;;16.08;100.00;100192.55;1564447;92;21111;-79
2022/10/11 08:49:44;;;;;;;5.03;2.22;;;;;;;16.21;100.00;100200.77;1522531;94;21681;-78
2022/10/11 08:52:35;;;;;;;4.80;1.90;;;;;;;16.32;100.00;100208.89;1521866;94;21128;-75
2022/10/11 08:55:06;;;;;;;1.80;1.70;;;;;;;16.38;100.00;100211.31;1510431;94;21100;-78
2022/10/11 08:57:36;;;;;;;3.33;2.02;;;;;;;16.40;100.00;100212.81;1445848;99;21134;-75
2022/10/11 09:00:10;;;;;;;2.17;1.98;;;;;;;16.47;100.00;100213.67;1446266;99;21150;-75
2022/10/11 09:03:00;;;;;;;3.00;1.85;;;;;;;16.53;100.00;100214.73;1425393;101;21205;-78
2022/10/11 09:05:33;;;;;;;2.85;1.70;;;;;;;16.63;100.00;100222.53;1425002;101;21183;-75
2022/10/11 09:08:21;;;;;;;3.25;2.12;;;;;;;16.81;100.00;100220.58;1393793;103;21351;-74
2022/10/11 09:11:26;;;;;;;3.67;1.87;;;;;;;16.94;100.00;100225.23;1394015;103;21069;-78
2022/10/11 09:14:24;;;;;;;2.92;1.60;;;;;;;17.05;100.00;100226.84;1396091;103;21721;-77
2022/10/11 09:17:03;;;;;;;2.35;2.00;;;;;;;17.21;100.00;100231.05;1408248;102;21203;-79
2022/10/11 09:19:36;;;;;;;2.47;1.90;;;;;;;17.37;100.00;100242.08;1418948;100;21627;-82
2022/10/11 09:22:26;;;;;;;23.80;12.78;;;;;;;17.46;100.00;100238.08;1425316;101;21151;-76
2022/10/11 09:25:26;;;;;;;13.72;6.53;;;;;;;17.44;100.00;100248.89;1396280;102;21228;-75
2022/10/11 09:28:12;;;;;;;10.93;5.33;;;;;;;17.40;100.00;100251.20;1427986;100;21133;-78
2022/10/11 09:30:50;;;;;;;15.48;7.83;;;;;;;17.42;100.00;100246.39;1446369;97;21633;-74
2022/10/11 09:33:33;;;;;;;6.33;3.37;;;;;;;17.54;100.00;100257.51;1513553;94;21073;-78
2022/10/11 09:36:00;;;;;;;5.53;2.65;;;;;;;17.57;100.00;100259.83;1497339;96;21200;-76
2022/10/11 09:38:44;;;;;;;3.37;1.77;;;;;;;17.55;100.00;100267.41;1507054;93;21072;-81
2022/10/11 09:41:28;;;;;;;2.37;1.70;;;;;;;17.56;100.00;100274.53;1510708;95;21114;-77
2022/10/11 09:43:54;;;;;;;4.22;2.30;;;;;;;17.65;100.00;100260.98;1535364;93;21104;-80
2022/10/11 09:46:40;;;;;;;3.45;1.67;;;;;;;17.72;100.00;100265.05;1508565;95;21169;-78
2022/10/11 09:49:11;;;;;;;4.37;2.40;;;;;;;17.77;100.00;100268.53;1535941;93;21093;-84
2022/10/11 09:51:38;;;;;;;4.05;2.83;;;;;;;17.88;100.00;100266.53;1509864;95;21054;-80
2022/10/11 09:54:09;;;;;;;6.42;3.40;;;;;;;18.06;100.00;100264.52;1570073;86;21084;-79
2022/10/11 09:56:42;;;;;;;3.90;2.50;;;;;;;18.22;100.00;100271.41;1617717;87;21053;-79
2022/10/11 09:59:31;;;;;;;3.33;1.77;;;;;;;18.32;100.00;100268.20;1631194;87;21102;-77
2022/10/11 10:02:15;;;;;;;1.98;1.77;;;;;;;18.38;100.00;100276.40;1699186;82;21112;-77
2022/10/11 10:05:03;;;;;;;1.87;1.70;;;;;;;18.39;100.00;100280.80;1644309;87;21097;-74
2022/10/11 10:07:31;;;;;;;2.75;1.85;;;;;;;18.41;100.00;100277.84;1645022;87;21082;-75
2022/10/11 10:10:00;;;;;;;1.70;1.60;;;;;;;18.41;100.00;100286.06;1644399;87;21105;-75
2022/10/11 10:12:28;;;;;;;4.37;1.67;;;;;;;18.39;100.00;100286.81;1578762;87;21094;-77
2022/10/11 10:15:09;;;;;;;2.72;1.98;;;;;;;18.37;100.00;100287.56;1644401;87;21054;-78
2022/10/11 10:17:38;;;;;;;8.18;1.92;;;;;;;18.36;100.00;100296.81;1642168;87;21148;-78
2022/10/11 10:20:06;;;;;;;2.37;1.60;;;;;;;18.31;100.00;100304.33;1623194;87;21088;-79
2022/10/11 10:22:34;;;;;;;5.08;1.82;;;;;;;18.28;100.00;100298.44;1623426;87;21089;-75
2022/10/11 10:25:06;;;;;;;2.17;1.65;;;;;;;18.31;100.00;100300.22;1645125;87;21030;-84
2022/10/11 10:27:32;;;;;;;1.37;1.27;;;;;;;18.40;100.00;100304.39;1645780;87;21071;-83
2022/10/11 10:30:07;;;;;;;3.50;1.50;;;;;;;18.43;100.00;100305.02;1644855;87;21074;-81
2022/10/11 10:32:54;;;;;;;3.60;1.70;;;;;;;18.48;100.00;100304.67;1644022;85;21129;-78
2022/10/11 10:35:38;;;;;;;8.63;3.47;;;;;;;18.60;100.00;100300.73;1614785;89;21173;-81
2022/10/11 10:38:27;;;;;;;4.95;1.87;;;;;;;18.64;100.00;100302.51;1644824;87;21117;-80
2022/10/11 10:41:05;;;;;;;4.37;1.87;;;;;;;18.54;100.00;100313.40;1714074;82;21050;-83
2022/10/11 10:43:38;;;;;;;4.00;1.90;;;;;;;18.39;100.00;100315.02;1698540;84;21064;-79
2022/10/11 10:46:49;;;;;;;2.42;1.65;;;;;;;18.36;100.00;100312.73;1646579;87;21115;-74
2022/10/11 10:49:44;;;;;;;1.92;1.82;;;;;;;18.24;100.00;100319.93;1647367;87;21011;-80
2022/10/11 10:52:42;;;;;;;4.75;1.55;;;;;;;18.00;100.00;100327.75;1647524;87;21087;-78
2022/10/11 10:55:35;;;;;;;3.77;1.90;;;;;;;17.59;100.00;100324.70;1630331;88;21019;-88
2022/10/11 10:58:47;;;;;;;3.60;2.62;;;;;;;17.24;100.00;100326.24;1631238;88;21110;-88
2022/10/11 11:01:24;;;;;;;3.92;2.60;;;;;;;16.98;100.00;100335.25;1630814;88;21146;-83
2022/10/11 11:04:24;;;;;;;3.75;1.90;;;;;;;16.75;100.00;100317.81;1630926;88;21043;-89
2022/10/11 11:07:24;;;;;;;4.40;2.00;;;;;;;16.63;100.00;100324.38;1631271;88;21028;-87
2022/10/11 11:10:18;;;;;;;3.58;2.22;;;;;;;16.67;100.00;100319.35;1609369;88;21107;-85
2022/10/11 11:13:06;;;;;;;2.33;1.75;;;;;;;16.75;100.00;100319.69;1632015;88;21111;-78
2022/10/11 11:15:48;;;;;;;4.65;1.95;;;;;;;16.93;100.00;100317.27;1631857;88;21114;-85
2022/10/11 11:18:41;;;;;;;9.10;4.58;;;;;;;17.15;100.00;100316.56;1631906;87;21035;-81
2022/10/11 11:21:33;;;;;;;;;;;;;;;17.23;100.00;100323.21;1633721;88;21087;-85
2022/10/11 11:24:40;;;;;;;3.22;2.00;;;;;;;17.32;100.00;100323.02;1654159;87;20134;-81
2022/10/11 11:27:15;;;;;;;3.60;2.30;;;;;;;17.42;100.00;100316.59;1655366;87;21102;-77
2022/10/11 11:30:02;;;;;;;3.85;2.22;;;;;;;17.43;100.00;100330.06;1645763;87;21135;-77
2022/10/11 11:32:41;;;;;;;3.87;2.08;;;;;;;17.32;100.00;100334.79;1614091;88;21126;-78
2022/10/11 11:35:34;;;;;;;4.20;2.60;;;;;;;17.16;100.00;100337.92;1584737;90;21116;-82
2022/10/11 11:38:21;;;;;;;6.70;2.22;;;;;;;16.99;100.00;100337.45;1541056;93;21081;-80
2022/10/11 11:40:55;;;;;;;2.47;2.17;;;;;;;16.81;100.00;100333.37;1522876;94;21116;-82
2022/10/11 11:43:38;;;;;;;4.15;2.30;;;;;;;16.79;100.00;100335.47;1487718;95;22290;-78
2022/10/11 11:46:13;;;;;;;4.25;1.92;;;;;;;16.82;100.00;100339.66;1475645;97;21094;-77
2022/10/11 11:48:40;;;;;;;4.78;2.08;;;;;;;16.84;100.00;100338.99;1438499;99;21133;-78
2022/10/11 11:51:12;;;;;;;3.83;2.58;;;;;;;16.84;100.00;100344.45;1436740;100;21225;-77
2022/10/11 11:53:51;;;;;;;5.28;2.37;;;;;;;16.78;100.00;100344.69;1437455;98;21096;-75